sensor_id;sensor_type;location;lat;lon;timestamp;pressure;altitude;pressure_sealevel;temperature;humidity
22255;BME280;11296;42.684;23.322;2022-08-05T00:01:17;95324.00;;;21.76;100.00
22255;BME280;11296;42.684;23.322;2022-08-05T00:03:45;95322.13;;;21.71;100.00
22255;BME280;11296;42.684;23.322;2022-08-05T00:06:11;95309.38;;;21.53;100.00
22255;BME280;11296;42.684;23.322;2022-08-05T00:08:37;95298.22;;;21.51;100.00
22255;BME280;11296;42.684;23.322;2022-08-05T00:11:09;95324.72;;;21.56;100.00
22255;BME280;11296;42.684;23.322;2022-08-05T00:13:37;95306.56;;;21.45;100.00
22255;BME280;11296;42.684;23.322;2022-08-05T00:16:03;95303.88;;;21.32;100.00
22255;BME280;11296;42.684;23.322;2022-08-05T00:18:29;95340.41;;;21.55;100.00
22255;BME280;11296;42.684;23.322;2022-08-05T00:20:55;95325.63;;;21.37;100.00
22255;BME280;11296;42.684;23.322;2022-08-05T00:23:22;95282.34;;;21.15;100.00
22255;BME280;11296;42.684;23.322;2022-08-05T00:25:48;95315.13;;;21.28;100.00
22255;BME280;11296;42.684;23.322;2022-08-05T00:28:14;95331.94;;;21.46;100.00
22255;BME280;11296;42.684;23.322;2022-08-05T00:30:40;95347.84;;;21.68;100.00
22255;BME280;11296;42.684;23.322;2022-08-05T00:33:06;95317.50;;;21.45;100.00
22255;BME280;11296;42.684;23.322;2022-08-05T00:35:31;95303.75;;;21.37;100.00
22255;BME280;11296;42.684;23.322;2022-08-05T00:37:57;95320.28;;;21.32;100.00
22255;BME280;11296;42.684;23.322;2022-08-05T00:40:24;95311.38;;;21.18;100.00
22255;BME280;11296;42.684;23.322;2022-08-05T00:42:50;95298.16;;;21.09;100.00
22255;BME280;11296;42.684;23.322;2022-08-05T00:45:15;95314.72;;;21.24;100.00
22255;BME280;11296;42.684;23.322;2022-08-05T00:47:41;95275.03;;;20.84;100.00
22255;BME280;11296;42.684;23.322;2022-08-05T00:50:07;95301.56;;;20.76;100.00
22255;BME280;11296;42.684;23.322;2022-08-05T00:52:33;95293.69;;;20.73;100.00
22255;BME280;11296;42.684;23.322;2022-08-05T00:54:59;95284.75;;;20.59;100.00
22255;BME280;11296;42.684;23.322;2022-08-05T00:57:25;95306.59;;;20.72;100.00
22255;BME280;11296;42.684;23.322;2022-08-05T00:59:51;95292.53;;;20.68;100.00
22255;BME280;11296;42.684;23.322;2022-08-05T01:02:17;95311.44;;;20.79;100.00
22255;BME280;11296;42.684;23.322;2022-08-05T01:04:43;95324.03;;;20.95;100.00
22255;BME280;11296;42.684;23.322;2022-08-05T01:07:08;95291.25;;;20.69;100.00
22255;BME280;11296;42.684;23.322;2022-08-05T01:09:34;95336.34;;;20.76;100.00
22255;BME280;11296;42.684;23.322;2022-08-05T01:12:04;95301.16;;;20.46;100.00
22255;BME280;11296;42.684;23.322;2022-08-05T01:14:35;95318.59;;;20.56;100.00
22255;BME280;11296;42.684;23.322;2022-08-05T01:17:08;95340.38;;;20.61;100.00
22255;BME280;11296;42.684;23.322;2022-08-05T01:27:59;95354.44;;;20.52;100.00
22255;BME280;11296;42.684;23.322;2022-08-05T01:30:33;95331.41;;;20.22;100.00
22255;BME280;11296;42.684;23.322;2022-08-05T01:33:07;95313.28;;;20.19;100.00
22255;BME280;11296;42.684;23.322;2022-08-05T01:35:36;95282.50;;;20.05;100.00
22255;BME280;11296;42.684;23.322;2022-08-05T01:38:03;95289.72;;;20.03;100.00
22255;BME280;11296;42.684;23.322;2022-08-05T01:40:30;95308.44;;;20.12;100.00
22255;BME280;11296;42.684;23.322;2022-08-05T01:42:59;95340.03;;;20.26;100.00
22255;BME280;11296;42.684;23.322;2022-08-05T01:45:30;95343.59;;;20.21;100.00
22255;BME280;11296;42.684;23.322;2022-08-05T01:47:59;95292.78;;;19.86;100.00
22255;BME280;11296;42.684;23.322;2022-08-05T01:50:29;95316.19;;;19.94;100.00
22255;BME280;11296;42.684;23.322;2022-08-05T01:52:59;95334.78;;;19.96;100.00
22255;BME280;11296;42.684;23.322;2022-08-05T01:55:28;95329.47;;;20.04;100.00
22255;BME280;11296;42.684;23.322;2022-08-05T01:57:56;95364.00;;;20.01;100.00
22255;BME280;11296;42.684;23.322;2022-08-05T02:00:24;95347.97;;;19.79;100.00
22255;BME280;11296;42.684;23.322;2022-08-05T02:05:55;95345.41;;;20.00;100.00
22255;BME280;11296;42.684;23.322;2022-08-05T02:08:20;95337.00;;;19.98;100.00
22255;BME280;11296;42.684;23.322;2022-08-05T02:10:52;95344.81;;;20.07;100.00
22255;BME280;11296;42.684;23.322;2022-08-05T02:13:34;95344.31;;;19.89;100.00
22255;BME280;11296;42.684;23.322;2022-08-05T02:16:06;95341.13;;;19.72;100.00
22255;BME280;11296;42.684;23.322;2022-08-05T02:19:02;95360.81;;;19.84;100.00
22255;BME280;11296;42.684;23.322;2022-08-05T02:21:53;95357.94;;;19.76;100.00
22255;BME280;11296;42.684;23.322;2022-08-05T02:24:31;95346.19;;;19.81;100.00
22255;BME280;11296;42.684;23.322;2022-08-05T02:27:00;95350.41;;;19.82;100.00
22255;BME280;11296;42.684;23.322;2022-08-05T02:29:28;95331.03;;;19.67;100.00
22255;BME280;11296;42.684;23.322;2022-08-05T02:31:59;95311.81;;;19.41;100.00
22255;BME280;11296;42.684;23.322;2022-08-05T02:34:29;95321.63;;;19.50;100.00
22255;BME280;11296;42.684;23.322;2022-08-05T02:36:57;95330.53;;;19.69;100.00
22255;BME280;11296;42.684;23.322;2022-08-05T02:39:26;95302.31;;;19.48;100.00
22255;BME280;11296;42.684;23.322;2022-08-05T02:41:52;95292.00;;;19.41;100.00
22255;BME280;11296;42.684;23.322;2022-08-05T02:44:20;95320.94;;;19.62;100.00
22255;BME280;11296;42.684;23.322;2022-08-05T02:46:49;95314.81;;;19.56;100.00
22255;BME280;11296;42.684;23.322;2022-08-05T02:49:16;95314.34;;;19.71;100.00
22255;BME280;11296;42.684;23.322;2022-08-05T02:51:43;95309.94;;;19.68;100.00
22255;BME280;11296;42.684;23.322;2022-08-05T02:54:10;95343.78;;;19.78;100.00
22255;BME280;11296;42.684;23.322;2022-08-05T02:56:39;95345.34;;;19.73;100.00
22255;BME280;11296;42.684;23.322;2022-08-05T02:59:06;95332.78;;;19.52;100.00
22255;BME280;11296;42.684;23.322;2022-08-05T03:01:33;95344.59;;;19.73;100.00
22255;BME280;11296;42.684;23.322;2022-08-05T03:04:01;95325.44;;;19.60;100.00
22255;BME280;11296;42.684;23.322;2022-08-05T03:06:28;95339.91;;;19.55;100.00
22255;BME280;11296;42.684;23.322;2022-08-05T03:08:54;95339.16;;;19.54;100.00
22255;BME280;11296;42.684;23.322;2022-08-05T03:11:22;95326.34;;;19.49;100.00
22255;BME280;11296;42.684;23.322;2022-08-05T03:13:48;95317.22;;;19.47;100.00
22255;BME280;11296;42.684;23.322;2022-08-05T03:16:14;95324.34;;;19.31;100.00
22255;BME280;11296;42.684;23.322;2022-08-05T03:18:40;95297.75;;;19.00;100.00
22255;BME280;11296;42.684;23.322;2022-08-05T03:23:51;95317.50;;;19.06;100.00
22255;BME280;11296;42.684;23.322;2022-08-05T03:26:17;95331.81;;;19.12;100.00
22255;BME280;11296;42.684;23.322;2022-08-05T03:28:43;95347.28;;;19.22;100.00
22255;BME280;11296;42.684;23.322;2022-08-05T03:31:12;95291.56;;;18.81;100.00
22255;BME280;11296;42.684;23.322;2022-08-05T03:33:38;95292.16;;;18.74;100.00
22255;BME280;11296;42.684;23.322;2022-08-05T03:36:05;95316.25;;;18.88;100.00
22255;BME280;11296;42.684;23.322;2022-08-05T03:38:30;95306.09;;;18.70;100.00
22255;BME280;11296;42.684;23.322;2022-08-05T03:40:56;95310.03;;;18.69;100.00
22255;BME280;11296;42.684;23.322;2022-08-05T03:43:22;95329.06;;;18.75;100.00
22255;BME280;11296;42.684;23.322;2022-08-05T03:45:51;95309.31;;;18.69;100.00
22255;BME280;11296;42.684;23.322;2022-08-05T03:48:19;95308.50;;;18.74;100.00
22255;BME280;11296;42.684;23.322;2022-08-05T03:51:02;95305.38;;;18.64;100.00
22255;BME280;11296;42.684;23.322;2022-08-05T03:56:27;95311.81;;;18.67;100.00
22255;BME280;11296;42.684;23.322;2022-08-05T03:58:59;95315.72;;;18.71;100.00
22255;BME280;11296;42.684;23.322;2022-08-05T04:01:28;95312.94;;;18.77;100.00
22255;BME280;11296;42.684;23.322;2022-08-05T04:03:54;95356.78;;;19.16;100.00
22255;BME280;11296;42.684;23.322;2022-08-05T04:06:21;95294.22;;;18.68;100.00
22255;BME280;11296;42.684;23.322;2022-08-05T04:08:48;95318.84;;;18.81;100.00
22255;BME280;11296;42.684;23.322;2022-08-05T04:11:13;95315.34;;;18.80;100.00
22255;BME280;11296;42.684;23.322;2022-08-05T04:13:40;95320.28;;;18.82;100.00
22255;BME280;11296;42.684;23.322;2022-08-05T04:16:07;95299.97;;;18.83;100.00
22255;BME280;11296;42.684;23.322;2022-08-05T04:18:34;95336.00;;;18.94;100.00
22255;BME280;11296;42.684;23.322;2022-08-05T04:21:00;95334.75;;;19.14;100.00
22255;BME280;11296;42.684;23.322;2022-08-05T04:23:27;95347.72;;;19.27;100.00
22255;BME280;11296;42.684;23.322;2022-08-05T04:25:53;95320.44;;;19.08;100.00
22255;BME280;11296;42.684;23.322;2022-08-05T04:28:20;95315.69;;;19.14;100.00
22255;BME280;11296;42.684;23.322;2022-08-05T04:30:47;95355.69;;;19.43;100.00
22255;BME280;11296;42.684;23.322;2022-08-05T04:33:14;95298.03;;;19.15;100.00
22255;BME280;11296;42.684;23.322;2022-08-05T04:35:41;95300.13;;;19.28;100.00
22255;BME280;11296;42.684;23.322;2022-08-05T04:38:07;95299.53;;;19.35;100.00
22255;BME280;11296;42.684;23.322;2022-08-05T04:40:34;95309.81;;;19.60;100.00
22255;BME280;11296;42.684;23.322;2022-08-05T04:42:59;95319.72;;;19.76;100.00
22255;BME280;11296;42.684;23.322;2022-08-05T04:45:25;95326.16;;;19.92;100.00
22255;BME280;11296;42.684;23.322;2022-08-05T04:47:51;95323.56;;;20.00;100.00
22255;BME280;11296;42.684;23.322;2022-08-05T04:50:16;95309.69;;;19.98;100.00
22255;BME280;11296;42.684;23.322;2022-08-05T04:52:44;95333.97;;;20.14;100.00
22255;BME280;11296;42.684;23.322;2022-08-05T04:55:09;95301.94;;;20.02;100.00
22255;BME280;11296;42.684;23.322;2022-08-05T04:57:35;95302.69;;;20.02;100.00
22255;BME280;11296;42.684;23.322;2022-08-05T05:00:04;95329.44;;;20.35;100.00
22255;BME280;11296;42.684;23.322;2022-08-05T05:02:30;95329.13;;;20.52;100.00
22255;BME280;11296;42.684;23.322;2022-08-05T05:04:56;95304.09;;;20.35;100.00
22255;BME280;11296;42.684;23.322;2022-08-05T05:07:22;95320.81;;;20.57;100.00
22255;BME280;11296;42.684;23.322;2022-08-05T05:09:47;95302.19;;;20.56;100.00
22255;BME280;11296;42.684;23.322;2022-08-05T05:12:13;95280.25;;;20.48;100.00
22255;BME280;11296;42.684;23.322;2022-08-05T05:14:39;95307.31;;;20.86;100.00
22255;BME280;11296;42.684;23.322;2022-08-05T05:17:04;95277.91;;;20.65;100.00
22255;BME280;11296;42.684;23.322;2022-08-05T05:19:31;95303.41;;;20.94;100.00
22255;BME280;11296;42.684;23.322;2022-08-05T05:21:56;95301.50;;;21.02;100.00
22255;BME280;11296;42.684;23.322;2022-08-05T05:24:22;95304.66;;;21.06;100.00
22255;BME280;11296;42.684;23.322;2022-08-05T05:26:51;95313.50;;;21.12;100.00
22255;BME280;11296;42.684;23.322;2022-08-05T05:29:26;95270.91;;;20.91;100.00
22255;BME280;11296;42.684;23.322;2022-08-05T05:32:00;95285.72;;;21.08;100.00
22255;BME280;11296;42.684;23.322;2022-08-05T05:34:28;95281.53;;;21.07;100.00
22255;BME280;11296;42.684;23.322;2022-08-05T05:36:57;95268.28;;;20.98;100.00
22255;BME280;11296;42.684;23.322;2022-08-05T05:40:24;95307.56;;;21.34;100.00
22255;BME280;11296;42.684;23.322;2022-08-05T05:46:55;95297.91;;;21.54;100.00
22255;BME280;11296;42.684;23.322;2022-08-05T05:49:34;95289.34;;;21.58;100.00
22255;BME280;11296;42.684;23.322;2022-08-05T05:52:05;95287.00;;;21.62;100.00
22255;BME280;11296;42.684;23.322;2022-08-05T05:54:31;95312.81;;;21.87;100.00
22255;BME280;11296;42.684;23.322;2022-08-05T05:56:57;95279.81;;;21.72;100.00
22255;BME280;11296;42.684;23.322;2022-08-05T05:59:22;95320.41;;;22.01;100.00
22255;BME280;11296;42.684;23.322;2022-08-05T06:01:48;95302.34;;;21.98;100.00
22255;BME280;11296;42.684;23.322;2022-08-05T06:04:17;95271.13;;;21.81;100.00
22255;BME280;11296;42.684;23.322;2022-08-05T06:06:43;95300.72;;;22.03;100.00
22255;BME280;11296;42.684;23.322;2022-08-05T06:09:10;95319.31;;;22.25;100.00
22255;BME280;11296;42.684;23.322;2022-08-05T06:11:36;95303.56;;;22.18;100.00
22255;BME280;11296;42.684;23.322;2022-08-05T06:14:01;95326.00;;;22.37;100.00
22255;BME280;11296;42.684;23.322;2022-08-05T06:16:29;95328.63;;;22.50;100.00
22255;BME280;11296;42.684;23.322;2022-08-05T06:18:55;95301.13;;;22.35;100.00
22255;BME280;11296;42.684;23.322;2022-08-05T06:21:21;95334.41;;;22.67;100.00
22255;BME280;11296;42.684;23.322;2022-08-05T06:23:46;95331.53;;;22.73;100.00
22255;BME280;11296;42.684;23.322;2022-08-05T06:26:12;95296.13;;;22.54;100.00
22255;BME280;11296;42.684;23.322;2022-08-05T06:28:38;95299.94;;;22.79;100.00
22255;BME280;11296;42.684;23.322;2022-08-05T06:31:03;95325.47;;;23.03;100.00
22255;BME280;11296;42.684;23.322;2022-08-05T06:33:29;95306.56;;;22.92;100.00
22255;BME280;11296;42.684;23.322;2022-08-05T06:35:55;95324.94;;;23.12;100.00
22255;BME280;11296;42.684;23.322;2022-08-05T06:38:20;95319.88;;;23.23;100.00
22255;BME280;11296;42.684;23.322;2022-08-05T06:40:46;95305.41;;;23.23;100.00
22255;BME280;11296;42.684;23.322;2022-08-05T06:43:12;95340.50;;;23.60;100.00
22255;BME280;11296;42.684;23.322;2022-08-05T06:45:42;95317.63;;;23.65;100.00
22255;BME280;11296;42.684;23.322;2022-08-05T06:48:08;95311.22;;;23.55;100.00
22255;BME280;11296;42.684;23.322;2022-08-05T06:50:34;95292.34;;;23.59;100.00
22255;BME280;11296;42.684;23.322;2022-08-05T06:53:03;95294.91;;;23.65;100.00
22255;BME280;11296;42.684;23.322;2022-08-05T06:55:47;95316.19;;;23.79;100.00
22255;BME280;11296;42.684;23.322;2022-08-05T06:58:13;95276.03;;;23.46;100.00
22255;BME280;11296;42.684;23.322;2022-08-05T07:00:41;95273.81;;;23.37;100.00
22255;BME280;11296;42.684;23.322;2022-08-05T07:03:08;95308.31;;;23.68;100.00
22255;BME280;11296;42.684;23.322;2022-08-05T07:05:40;95310.50;;;23.70;100.00
22255;BME280;11296;42.684;23.322;2022-08-05T07:08:05;95287.41;;;23.80;100.00
22255;BME280;11296;42.684;23.322;2022-08-05T07:11:04;95276.44;;;23.73;100.00
22255;BME280;11296;42.684;23.322;2022-08-05T07:13:34;95311.63;;;24.19;100.00
22255;BME280;11296;42.684;23.322;2022-08-05T07:16:28;95290.38;;;24.27;100.00
22255;BME280;11296;42.684;23.322;2022-08-05T07:20:03;95282.50;;;24.32;100.00
22255;BME280;11296;42.684;23.322;2022-08-05T07:23:00;95286.28;;;24.51;97.12
22255;BME280;11296;42.684;23.322;2022-08-05T07:28:36;95298.16;;;24.84;98.05
22255;BME280;11296;42.684;23.322;2022-08-05T07:32:20;95270.47;;;24.82;94.43
22255;BME280;11296;42.684;23.322;2022-08-05T07:38:35;95314.28;;;25.35;95.05
22255;BME280;11296;42.684;23.322;2022-08-05T07:41:17;95284.88;;;25.37;92.94
22255;BME280;11296;42.684;23.322;2022-08-05T07:44:01;95284.59;;;25.58;89.58
22255;BME280;11296;42.684;23.322;2022-08-05T08:15:28;95301.44;;;26.78;77.21
22255;BME280;11296;42.684;23.322;2022-08-05T08:17:54;95277.22;;;26.69;76.95
22255;BME280;11296;42.684;23.322;2022-08-05T08:20:24;95264.69;;;26.75;75.13
22255;BME280;11296;42.684;23.322;2022-08-05T08:23:00;95289.00;;;27.03;75.90
22255;BME280;11296;42.684;23.322;2022-08-05T08:25:27;95275.13;;;26.94;70.87
22255;BME280;11296;42.684;23.322;2022-08-05T08:27:54;95253.88;;;26.87;69.50
22255;BME280;11296;42.684;23.322;2022-08-05T08:30:20;95282.28;;;26.97;72.11
22255;BME280;11296;42.684;23.322;2022-08-05T08:32:46;95269.00;;;27.12;67.17
22255;BME280;11296;42.684;23.322;2022-08-05T08:35:16;95278.09;;;27.23;68.64
22255;BME280;11296;42.684;23.322;2022-08-05T08:37:41;95272.56;;;27.23;69.39
22255;BME280;11296;42.684;23.322;2022-08-05T08:40:07;95273.00;;;27.46;68.08
22255;BME280;11296;42.684;23.322;2022-08-05T08:42:35;95227.84;;;27.34;68.30
22255;BME280;11296;42.684;23.322;2022-08-05T08:45:03;95304.38;;;27.94;66.66
22255;BME280;11296;42.684;23.322;2022-08-05T08:47:30;95285.13;;;27.86;61.54
22255;BME280;11296;42.684;23.322;2022-08-05T08:49:58;95263.72;;;27.77;62.01
22255;BME280;11296;42.684;23.322;2022-08-05T08:52:34;95290.47;;;28.02;61.23
22255;BME280;11296;42.684;23.322;2022-08-05T08:55:01;95270.94;;;28.00;64.89
22255;BME280;11296;42.684;23.322;2022-08-05T08:57:29;95270.53;;;28.13;61.69
22255;BME280;11296;42.684;23.322;2022-08-05T09:03:53;95281.84;;;28.63;56.92
22255;BME280;11296;42.684;23.322;2022-08-05T09:06:21;95247.59;;;28.48;56.95
22255;BME280;11296;42.684;23.322;2022-08-05T09:08:47;95267.56;;;28.56;52.11
22255;BME280;11296;42.684;23.322;2022-08-05T09:11:13;95259.84;;;28.55;51.79
22255;BME280;11296;42.684;23.322;2022-08-05T09:13:40;95241.03;;;28.53;52.89
22255;BME280;11296;42.684;23.322;2022-08-05T09:16:07;95223.13;;;28.54;53.24
22255;BME280;11296;42.684;23.322;2022-08-05T09:18:36;95294.09;;;29.07;51.66
22255;BME280;11296;42.684;23.322;2022-08-05T09:25:08;95207.38;;;29.05;45.95
22255;BME280;11296;42.684;23.322;2022-08-05T09:27:54;95207.03;;;29.10;46.51
22255;BME280;11296;42.684;23.322;2022-08-05T09:51:10;95202.78;;;29.78;44.32
22255;BME280;11296;42.684;23.322;2022-08-05T09:53:50;95211.38;;;29.82;44.17
22255;BME280;11296;42.684;23.322;2022-08-05T10:02:04;95180.13;;;29.82;43.11
22255;BME280;11296;42.684;23.322;2022-08-05T10:04:36;95171.94;;;29.84;43.94
22255;BME280;11296;42.684;23.322;2022-08-05T10:07:14;95189.31;;;30.05;42.93
22255;BME280;11296;42.684;23.322;2022-08-05T10:10:16;95194.44;;;30.09;42.98
22255;BME280;11296;42.684;23.322;2022-08-05T10:12:47;95182.06;;;30.00;42.76
22255;BME280;11296;42.684;23.322;2022-08-05T10:15:27;95220.94;;;30.43;43.91
22255;BME280;11296;42.684;23.322;2022-08-05T10:29:30;95220.31;;;31.19;41.40
22255;BME280;11296;42.684;23.322;2022-08-05T10:35:37;95177.16;;;31.18;39.91
22255;BME280;11296;42.684;23.322;2022-08-05T10:38:04;95186.38;;;31.32;40.49
22255;BME280;11296;42.684;23.322;2022-08-05T10:43:22;95200.28;;;31.32;40.79
22255;BME280;11296;42.684;23.322;2022-08-05T10:46:04;95181.44;;;31.42;39.15
22255;BME280;11296;42.684;23.322;2022-08-05T10:48:44;95171.25;;;31.35;38.42
22255;BME280;11296;42.684;23.322;2022-08-05T10:51:17;95149.13;;;31.14;39.21
22255;BME280;11296;42.684;23.322;2022-08-05T10:56:18;95164.84;;;31.33;39.38
22255;BME280;11296;42.684;23.322;2022-08-05T11:01:41;95187.13;;;31.91;39.06
22255;BME280;11296;42.684;23.322;2022-08-05T11:04:21;95158.09;;;31.94;38.12
22255;BME280;11296;42.684;23.322;2022-08-05T11:15:27;95139.47;;;32.45;37.00
22255;BME280;11296;42.684;23.322;2022-08-05T11:20:41;95153.59;;;32.12;36.59
22255;BME280;11296;42.684;23.322;2022-08-05T11:23:28;95158.06;;;32.17;36.02
22255;BME280;11296;42.684;23.322;2022-08-05T11:34:05;95138.81;;;32.58;36.40
22255;BME280;11296;42.684;23.322;2022-08-05T11:39:48;95159.28;;;32.62;36.21
22255;BME280;11296;42.684;23.322;2022-08-05T11:42:15;95145.13;;;32.47;37.00
22255;BME280;11296;42.684;23.322;2022-08-05T11:44:42;95115.75;;;32.32;36.15
22255;BME280;11296;42.684;23.322;2022-08-05T11:47:08;95151.09;;;32.91;35.11
22255;BME280;11296;42.684;23.322;2022-08-05T11:49:34;95128.81;;;33.17;34.78
22255;BME280;11296;42.684;23.322;2022-08-05T11:52:01;95135.03;;;33.42;33.65
22255;BME280;11296;42.684;23.322;2022-08-05T11:54:29;95162.44;;;33.46;33.50
22255;BME280;11296;42.684;23.322;2022-08-05T11:56:57;95126.22;;;33.21;35.03
22255;BME280;11296;42.684;23.322;2022-08-05T11:59:24;95134.88;;;33.00;33.65
22255;BME280;11296;42.684;23.322;2022-08-05T12:02:08;95130.59;;;32.99;34.31
22255;BME280;11296;42.684;23.322;2022-08-05T12:04:45;95130.97;;;33.05;34.13
22255;BME280;11296;42.684;23.322;2022-08-05T12:07:36;95102.06;;;33.25;33.24
22255;BME280;11296;42.684;23.322;2022-08-05T12:10:26;95129.59;;;33.72;32.32
22255;BME280;11296;42.684;23.322;2022-08-05T12:13:02;95124.53;;;33.82;33.82
22255;BME280;11296;42.684;23.322;2022-08-05T12:15:29;95121.03;;;33.95;32.60
22255;BME280;11296;42.684;23.322;2022-08-05T12:17:55;95119.13;;;34.13;33.30
22255;BME280;11296;42.684;23.322;2022-08-05T12:20:26;95079.66;;;34.05;31.99
22255;BME280;11296;42.684;23.322;2022-08-05T12:23:08;95117.03;;;34.85;32.75
22255;BME280;11296;42.684;23.322;2022-08-05T12:25:51;95113.69;;;35.03;31.53
22255;BME280;11296;42.684;23.322;2022-08-05T12:28:34;95125.69;;;35.05;30.88
22255;BME280;11296;42.684;23.322;2022-08-05T12:31:01;95135.63;;;34.94;31.66
22255;BME280;11296;42.684;23.322;2022-08-05T12:33:48;95105.94;;;33.86;33.03
22255;BME280;11296;42.684;23.322;2022-08-05T12:36:49;95085.34;;;33.39;34.05
22255;BME280;11296;42.684;23.322;2022-08-05T12:39:25;95118.53;;;33.46;34.14
22255;BME280;11296;42.684;23.322;2022-08-05T12:42:19;95105.50;;;33.37;33.44
22255;BME280;11296;42.684;23.322;2022-08-05T12:44:49;95074.50;;;32.79;34.25
22255;BME280;11296;42.684;23.322;2022-08-05T12:47:56;95094.16;;;32.44;35.13
22255;BME280;11296;42.684;23.322;2022-08-05T12:50:29;95075.94;;;32.04;36.02
22255;BME280;11296;42.684;23.322;2022-08-05T12:52:56;95110.63;;;32.15;35.51
22255;BME280;11296;42.684;23.322;2022-08-05T12:55:27;95072.47;;;31.81;36.03
22255;BME280;11296;42.684;23.322;2022-08-05T12:57:55;95043.25;;;31.57;36.21
22255;BME280;11296;42.684;23.322;2022-08-05T13:00:25;95086.09;;;32.00;36.01
22255;BME280;11296;42.684;23.322;2022-08-05T13:02:54;95075.59;;;32.24;35.95
22255;BME280;11296;42.684;23.322;2022-08-05T13:05:23;95084.63;;;32.86;34.88
22255;BME280;11296;42.684;23.322;2022-08-05T13:07:57;95089.34;;;35.05;32.43
22255;BME280;11296;42.684;23.322;2022-08-05T13:10:25;95040.53;;;36.06;30.39
22255;BME280;11296;42.684;23.322;2022-08-05T13:12:54;95057.88;;;38.08;28.44
22255;BME280;11296;42.684;23.322;2022-08-05T13:15:31;95058.06;;;39.03;27.04
22255;BME280;11296;42.684;23.322;2022-08-05T13:17:57;95074.19;;;40.01;24.77
22255;BME280;11296;42.684;23.322;2022-08-05T13:20:33;95043.00;;;40.21;25.33
22255;BME280;11296;42.684;23.322;2022-08-05T13:23:02;95052.22;;;41.16;23.03
22255;BME280;11296;42.684;23.322;2022-08-05T13:25:28;95055.03;;;41.50;22.74
22255;BME280;11296;42.684;23.322;2022-08-05T13:33:48;95077.41;;;43.55;20.87
22255;BME280;11296;42.684;23.322;2022-08-05T13:36:26;95077.56;;;43.65;20.58
22255;BME280;11296;42.684;23.322;2022-08-05T13:38:57;95066.88;;;44.34;19.79
22255;BME280;11296;42.684;23.322;2022-08-05T13:41:25;95053.59;;;44.54;19.23
22255;BME280;11296;42.684;23.322;2022-08-05T13:43:53;95047.47;;;44.02;20.36
22255;BME280;11296;42.684;23.322;2022-08-05T13:46:19;95034.56;;;44.71;19.01
22255;BME280;11296;42.684;23.322;2022-08-05T13:48:50;95046.13;;;45.05;18.52
22255;BME280;11296;42.684;23.322;2022-08-05T13:51:34;95030.47;;;44.96;18.56
22255;BME280;11296;42.684;23.322;2022-08-05T13:54:02;95072.59;;;44.38;19.03
22255;BME280;11296;42.684;23.322;2022-08-05T13:57:01;95023.34;;;44.03;19.58
22255;BME280;11296;42.684;23.322;2022-08-05T13:59:31;95063.16;;;43.47;19.55
22255;BME280;11296;42.684;23.322;2022-08-05T14:01:57;95030.91;;;43.16;19.42
22255;BME280;11296;42.684;23.322;2022-08-05T14:04:34;95040.63;;;43.01;20.21
22255;BME280;11296;42.684;23.322;2022-08-05T14:12:59;95032.38;;;43.81;19.34
22255;BME280;11296;42.684;23.322;2022-08-05T14:15:25;95021.75;;;44.66;18.08
22255;BME280;11296;42.684;23.322;2022-08-05T14:17:51;95030.06;;;44.40;18.38
22255;BME280;11296;42.684;23.322;2022-08-05T14:20:17;95052.91;;;44.56;19.04
22255;BME280;11296;42.684;23.322;2022-08-05T14:22:42;95027.84;;;45.38;17.94
22255;BME280;11296;42.684;23.322;2022-08-05T14:25:09;95020.03;;;45.45;17.37
22255;BME280;11296;42.684;23.322;2022-08-05T14:27:34;95014.81;;;44.87;17.53
22255;BME280;11296;42.684;23.322;2022-08-05T14:30:01;95012.78;;;45.06;17.26
22255;BME280;11296;42.684;23.322;2022-08-05T14:32:26;95030.09;;;45.84;17.13
22255;BME280;11296;42.684;23.322;2022-08-05T14:34:52;95026.00;;;44.63;17.65
22255;BME280;11296;42.684;23.322;2022-08-05T14:37:18;94998.22;;;42.55;18.64
22255;BME280;11296;42.684;23.322;2022-08-05T14:39:47;95003.38;;;40.15;20.69
22255;BME280;11296;42.684;23.322;2022-08-05T14:42:13;95031.72;;;38.69;21.74
22255;BME280;11296;42.684;23.322;2022-08-05T14:44:38;95016.50;;;37.48;23.24
22255;BME280;11296;42.684;23.322;2022-08-05T14:47:07;95024.41;;;38.16;22.65
22255;BME280;11296;42.684;23.322;2022-08-05T14:49:32;94998.56;;;38.20;23.10
22255;BME280;11296;42.684;23.322;2022-08-05T14:51:58;94998.53;;;40.47;20.47
22255;BME280;11296;42.684;23.322;2022-08-05T14:54:24;94997.34;;;41.61;19.33
22255;BME280;11296;42.684;23.322;2022-08-05T14:56:49;94998.94;;;42.10;19.52
22255;BME280;11296;42.684;23.322;2022-08-05T14:59:15;94993.16;;;41.64;19.20
22255;BME280;11296;42.684;23.322;2022-08-05T15:01:41;95004.28;;;41.94;19.37
22255;BME280;11296;42.684;23.322;2022-08-05T15:04:12;94960.81;;;40.64;20.08
22255;BME280;11296;42.684;23.322;2022-08-05T15:06:45;95001.00;;;40.96;19.87
22255;BME280;11296;42.684;23.322;2022-08-05T15:09:11;94976.22;;;40.00;20.36
22255;BME280;11296;42.684;23.322;2022-08-05T15:11:36;94968.09;;;41.09;20.15
22255;BME280;11296;42.684;23.322;2022-08-05T15:14:03;94984.38;;;39.87;20.37
22255;BME280;11296;42.684;23.322;2022-08-05T15:16:29;95000.81;;;40.56;20.18
22255;BME280;11296;42.684;23.322;2022-08-05T15:18:55;94978.63;;;39.83;20.78
22255;BME280;11296;42.684;23.322;2022-08-05T15:21:21;94983.94;;;39.18;21.48
22255;BME280;11296;42.684;23.322;2022-08-05T15:23:47;94978.97;;;39.97;21.04
22255;BME280;11296;42.684;23.322;2022-08-05T15:26:12;94984.34;;;39.85;21.15
22255;BME280;11296;42.684;23.322;2022-08-05T15:28:41;94989.25;;;40.42;20.52
22255;BME280;11296;42.684;23.322;2022-08-05T15:31:06;94958.59;;;38.92;21.92